Time;durP1;ratioP1;P1;durP2;ratioP2;P2;SDS_P1;SDS_P2;PMS_P1;PMS_P2;Temp;Humidity;BMP_temperature;BMP_pressure;BME280_temperature;BME280_humidity;BME280_pressure;Samples;Min_cycle;Max_cycle;Signal;HPM_P1;HPM_P2
2023/05/23 00:00:40;;;;;;;3.97;2.80;;;13.90;99.90;;;;;;5013569;28;20632;-69
2023/05/23 00:03:07;;;;;;;3.60;3.43;;;13.90;99.90;;;;;;5013410;28;20437;-69
2023/05/23 00:05:33;;;;;;;1.77;1.67;;;13.90;99.90;;;;;;5013582;28;20890;-69
2023/05/23 00:08:00;;;;;;;5.00;4.50;;;13.90;99.90;;;;;;5013480;28;20457;-69
2023/05/23 00:10:26;;;;;;;4.50;4.03;;;13.90;99.90;;;;;;5013625;28;20286;-69
2023/05/23 00:12:52;;;;;;;3.40;3.17;;;13.90;99.90;;;;;;4995638;28;20926;-69
2023/05/23 00:15:18;;;;;;;6.23;4.13;;;13.90;99.90;;;;;;5013500;28;20175;-69
2023/05/23 00:17:43;;;;;;;7.90;3.23;;;13.90;99.90;;;;;;5013236;28;20502;-69
2023/05/23 00:20:10;;;;;;;4.13;3.60;;;13.90;99.90;;;;;;5012067;28;20990;-69
2023/05/23 00:22:41;;;;;;;6.53;3.27;;;13.90;99.90;;;;;;5013548;28;20290;-68
2023/05/23 00:25:07;;;;;;;2.87;1.63;;;13.80;99.90;;;;;;5013463;28;20792;-69
2023/05/23 00:27:33;;;;;;;11.20;3.20;;;13.80;99.90;;;;;;5013180;28;20968;-69
2023/05/23 00:29:58;;;;;;;3.70;1.73;;;13.80;99.90;;;;;;5013129;28;20454;-68
2023/05/23 00:32:24;;;;;;;2.60;2.50;;;13.80;99.90;;;;;;5013177;28;20659;-69
2023/05/23 00:34:52;;;;;;;1.57;1.47;;;13.80;99.90;;;;;;5013230;28;20175;-69
2023/05/23 00:37:19;;;;;;;2.63;2.43;;;13.70;99.90;;;;;;5013118;28;20171;-69
2023/05/23 00:39:44;;;;;;;4.10;2.40;;;13.50;99.90;;;;;;5013287;28;20418;-69
2023/05/23 00:42:10;;;;;;;2.87;2.50;;;13.60;99.90;;;;;;5013179;28;20770;-68
2023/05/23 00:44:36;;;;;;;4.70;4.23;;;13.70;99.90;;;;;;5013234;28;20176;-68
2023/05/23 00:47:02;;;;;;;5.53;4.50;;;13.80;99.90;;;;;;5013028;28;20504;-69
2023/05/23 00:49:28;;;;;;;9.57;4.30;;;13.70;99.90;;;;;;5013107;28;20203;-69
2023/05/23 00:51:54;;;;;;;4.70;3.67;;;13.70;99.90;;;;;;5012914;28;20429;-69
2023/05/23 00:54:24;;;;;;;4.40;2.93;;;13.60;99.90;;;;;;5013053;28;20406;-69
2023/05/23 00:56:50;;;;;;;3.60;3.30;;;13.60;99.90;;;;;;5012830;28;20410;-69
2023/05/23 00:59:16;;;;;;;2.20;2.00;;;13.50;99.90;;;;;;5013028;28;20489;-69
2023/05/23 01:01:45;;;;;;;3.17;2.97;;;13.50;99.90;;;;;;5013141;28;20954;-69
2023/05/23 01:04:12;;;;;;;3.50;3.20;;;13.50;99.90;;;;;;5016438;28;20492;-69
2023/05/23 01:06:38;;;;;;;3.10;2.83;;;13.60;99.90;;;;;;5016253;28;20484;-68
2023/05/23 01:09:03;;;;;;;2.00;1.83;;;13.50;99.90;;;;;;5016508;28;20458;-69
2023/05/23 01:11:41;;;;;;;3.13;2.40;;;13.50;99.90;;;;;;5016299;28;20217;-69
2023/05/23 01:14:17;;;;;;;7.90;2.80;;;13.60;99.90;;;;;;5016380;28;20186;-69
2023/05/23 01:16:47;;;;;;;5.70;5.10;;;13.70;99.90;;;;;;5016312;28;20457;-69
2023/05/23 01:19:35;;;;;;;2.53;2.33;;;13.70;99.90;;;;;;5016318;28;20485;-69
2023/05/23 01:22:10;;;;;;;6.27;3.30;;;13.60;99.90;;;;;;5016553;28;20991;-69
2023/05/23 01:24:48;;;;;;;4.73;3.30;;;13.60;99.90;;;;;;4998534;28;20417;-69
2023/05/23 01:27:41;;;;;;;5.60;3.87;;;13.50;99.90;;;;;;5015944;28;20411;-69
2023/05/23 01:30:10;;;;;;;4.50;4.10;;;13.40;99.90;;;;;;5015034;28;21013;-69
2023/05/23 01:32:38;;;;;;;2.17;2.03;;;13.40;99.90;;;;;;5016300;28;20431;-69
2023/05/23 01:35:05;;;;;;;4.07;3.70;;;13.40;99.90;;;;;;5015843;28;20426;-68
2023/05/23 01:37:30;;;;;;;2.10;1.90;;;13.30;99.90;;;;;;5015671;28;20446;-69
2023/05/23 01:39:56;;;;;;;3.67;3.47;;;13.30;99.90;;;;;;5015913;28;20457;-69
2023/05/23 01:42:22;;;;;;;2.60;2.40;;;13.30;99.90;;;;;;5015749;28;20576;-69
2023/05/23 01:44:47;;;;;;;2.20;2.10;;;13.30;99.90;;;;;;5015794;28;20186;-69
2023/05/23 01:47:14;;;;;;;1.87;1.67;;;13.30;99.90;;;;;;4997915;28;20205;-69
2023/05/23 01:49:43;;;;;;;3.57;2.63;;;13.30;99.90;;;;;;5015744;28;20210;-69
2023/05/23 01:52:09;;;;;;;5.83;3.57;;;13.40;99.90;;;;;;5015665;28;20864;-69
2023/05/23 01:54:37;;;;;;;4.60;3.03;;;13.30;99.90;;;;;;5015547;28;20405;-69
2023/05/23 01:57:04;;;;;;;4.07;3.83;;;13.30;99.90;;;;;;5015269;28;20510;-69
2023/05/23 01:59:30;;;;;;;4.63;2.97;;;13.40;99.90;;;;;;5015571;28;20418;-68
2023/05/23 02:01:56;;;;;;;6.77;4.70;;;13.50;99.90;;;;;;5015501;28;20495;-68
2023/05/23 02:04:21;;;;;;;7.13;2.47;;;13.60;99.90;;;;;;5015410;28;20182;-69
2023/05/23 02:06:47;;;;;;;3.07;2.87;;;13.60;99.90;;;;;;5015188;28;20172;-69
2023/05/23 02:09:13;;;;;;;3.33;2.63;;;13.50;99.90;;;;;;5015320;28;20179;-69
2023/05/23 02:11:38;;;;;;;3.33;3.10;;;13.40;99.90;;;;;;5015159;28;20207;-68
2023/05/23 02:14:04;;;;;;;4.10;2.90;;;13.40;99.90;;;;;;5015043;28;20502;-69
2023/05/23 02:16:32;;;;;;;4.43;4.13;;;13.30;99.90;;;;;;5014966;28;20179;-69
2023/05/23 02:18:58;;;;;;;7.10;5.00;;;13.30;99.90;;;;;;5015430;28;20254;-69
2023/05/23 02:21:23;;;;;;;2.90;2.60;;;13.30;99.90;;;;;;5015055;28;20405;-69
2023/05/23 02:23:49;;;;;;;3.93;3.60;;;13.30;99.90;;;;;;5014997;28;20416;-69
2023/05/23 02:26:15;;;;;;;4.00;3.70;;;13.30;99.90;;;;;;5014898;28;20168;-69
2023/05/23 02:28:41;;;;;;;6.20;2.57;;;13.10;99.90;;;;;;5014853;28;20984;-69
2023/05/23 02:31:06;;;;;;;3.03;2.13;;;13.10;99.90;;;;;;5014859;28;20563;-69
2023/05/23 02:33:32;;;;;;;1.77;1.67;;;13.20;99.90;;;;;;5014834;28;20174;-69
2023/05/23 02:35:57;;;;;;;4.20;3.40;;;13.20;99.90;;;;;;5014604;28;20197;-69
2023/05/23 02:38:25;;;;;;;7.43;2.13;;;13.10;99.90;;;;;;5014879;28;20253;-68
2023/05/23 02:40:52;;;;;;;2.60;2.30;;;13.10;99.90;;;;;;5014864;28;20198;-69
2023/05/23 02:43:21;;;;;;;4.17;2.83;;;13.10;99.90;;;;;;5014560;28;20444;-69
2023/05/23 02:45:46;;;;;;;4.60;4.23;;;13.10;99.90;;;;;;5014422;28;20414;-69
2023/05/23 02:48:12;;;;;;;2.60;2.40;;;13.10;99.90;;;;;;5014574;28;20421;-69
2023/05/23 02:50:37;;;;;;;3.13;2.83;;;13.20;99.90;;;;;;5014454;28;20315;-69
2023/05/23 02:53:03;;;;;;;5.20;2.33;;;13.20;99.90;;;;;;5014400;28;20681;-68
2023/05/23 02:55:30;;;;;;;2.00;1.53;;;13.10;99.90;;;;;;5014395;28;20261;-69
2023/05/23 02:57:57;;;;;;;2.17;2.07;;;13.10;99.90;;;;;;5014355;28;20217;-69
2023/05/23 03:00:23;;;;;;;1.87;1.73;;;13.10;99.90;;;;;;5014344;28;20409;-69
2023/05/23 03:02:49;;;;;;;3.40;3.10;;;13.10;99.90;;;;;;5014253;28;20430;-69
2023/05/23 03:05:14;;;;;;;8.83;2.60;;;13.00;99.90;;;;;;5014468;28;20509;-68
2023/05/23 03:07:40;;;;;;;3.80;3.33;;;13.00;99.90;;;;;;5014200;28;20534;-69
2023/05/23 03:10:06;;;;;;;3.50;2.47;;;13.00;99.90;;;;;;5014525;28;20706;-69
2023/05/23 03:12:32;;;;;;;2.63;2.20;;;13.10;99.90;;;;;;5013800;28;20211;-69
2023/05/23 03:14:57;;;;;;;1.57;1.47;;;13.00;99.90;;;;;;5014036;28;20426;-69
2023/05/23 03:17:24;;;;;;;2.57;2.47;;;13.00;99.90;;;;;;5013941;28;20174;-68
2023/05/23 03:19:50;;;;;;;1.87;1.77;;;13.00;99.90;;;;;;5014093;28;20643;-69
2023/05/23 03:22:16;;;;;;;4.13;2.60;;;12.90;99.90;;;;;;5013839;28;20477;-69
2023/05/23 03:24:42;;;;;;;5.97;3.93;;;12.90;99.90;;;;;;5013411;28;20202;-68
2023/05/23 03:27:08;;;;;;;2.43;2.23;;;12.80;99.90;;;;;;5013452;28;20211;-68
2023/05/23 03:29:33;;;;;;;3.70;2.63;;;13.00;99.90;;;;;;5014042;28;20624;-69
2023/05/23 03:31:59;;;;;;;4.60;3.10;;;13.10;99.90;;;;;;5013668;28;20471;-68
2023/05/23 03:34:25;;;;;;;2.83;2.30;;;13.10;99.90;;;;;;5013844;28;20257;-69
2023/05/23 03:36:52;;;;;;;4.53;3.20;;;13.10;99.90;;;;;;5013611;28;20530;-69
2023/05/23 03:39:17;;;;;;;2.73;2.53;;;13.00;99.90;;;;;;5014112;28;20453;-69
2023/05/23 03:41:43;;;;;;;2.90;2.70;;;13.10;99.90;;;;;;5013755;28;20461;-68
2023/05/23 03:44:09;;;;;;;5.27;4.23;;;13.10;99.90;;;;;;5013652;28;20170;-68
2023/05/23 03:46:34;;;;;;;3.40;3.10;;;13.10;99.90;;;;;;5013511;28;20628;-69
2023/05/23 03:49:00;;;;;;;3.00;2.80;;;13.00;99.90;;;;;;5013675;28;20206;-69
2023/05/23 03:51:26;;;;;;;3.50;3.23;;;13.10;99.90;;;;;;5013444;28;20736;-68
2023/05/23 03:53:52;;;;;;;3.13;2.90;;;13.10;99.90;;;;;;5013586;28;20604;-69
2023/05/23 03:56:18;;;;;;;2.30;2.20;;;13.20;99.90;;;;;;5013454;28;20500;-68
2023/05/23 03:58:43;;;;;;;5.27;3.43;;;13.30;99.90;;;;;;5013666;28;20167;-69
2023/05/23 04:01:09;;;;;;;2.83;2.63;;;13.20;99.90;;;;;;5013535;28;20174;-69
2023/05/23 04:03:35;;;;;;;3.10;2.77;;;13.20;99.90;;;;;;5013489;28;20235;-69
2023/05/23 04:06:01;;;;;;;4.17;3.77;;;13.20;99.90;;;;;;5013245;28;20207;-68
2023/05/23 04:08:28;;;;;;;3.23;2.93;;;13.20;99.90;;;;;;5013471;28;20550;-69
2023/05/23 04:10:54;;;;;;;3.00;2.80;;;13.30;99.90;;;;;;5013359;28;20241;-68
2023/05/23 04:13:20;;;;;;;2.33;2.20;;;13.40;99.90;;;;;;5013251;28;20489;-69
2023/05/23 04:15:46;;;;;;;2.70;2.50;;;13.30;99.90;;;;;;5013180;28;20225;-68
2023/05/23 04:18:13;;;;;;;3.90;3.43;;;13.30;99.90;;;;;;5013451;28;20403;-69
2023/05/23 04:20:40;;;;;;;3.97;3.33;;;13.30;99.90;;;;;;5013524;28;20471;-68
2023/05/23 04:23:05;;;;;;;3.73;3.20;;;13.40;99.90;;;;;;5013362;28;20433;-68
2023/05/23 04:25:31;;;;;;;5.30;4.80;;;13.50;99.90;;;;;;5013127;28;20794;-68
2023/05/23 04:27:57;;;;;;;3.10;2.63;;;13.50;99.90;;;;;;5013360;28;20180;-69
2023/05/23 04:30:22;;;;;;;4.23;3.83;;;13.50;99.90;;;;;;5013319;28;20200;-69
2023/05/23 04:32:48;;;;;;;2.50;2.30;;;13.60;99.90;;;;;;5013155;28;20236;-69
2023/05/23 04:35:13;;;;;;;3.83;2.00;;;13.70;99.90;;;;;;5013129;28;20182;-69
2023/05/23 04:37:39;;;;;;;2.40;2.20;;;13.90;99.90;;;;;;5014578;28;20255;-69
2023/05/23 04:40:08;;;;;;;5.77;3.43;;;13.90;99.90;;;;;;5016972;28;20186;-69
2023/05/23 04:42:34;;;;;;;4.30;3.90;;;14.10;99.90;;;;;;5017003;28;20269;-69
2023/05/23 04:45:02;;;;;;;8.43;2.30;;;14.30;99.90;;;;;;5016741;28;20410;-69
2023/05/23 04:47:28;;;;;;;6.83;3.30;;;14.40;99.90;;;;;;5016569;28;20779;-69
2023/05/23 04:49:56;;;;;;;2.60;2.40;;;14.50;99.90;;;;;;5016975;28;20452;-69
2023/05/23 04:52:22;;;;;;;6.50;4.27;;;14.70;99.90;;;;;;5016613;28;20189;-69
2023/05/23 04:54:48;;;;;;;3.23;2.83;;;14.70;99.90;;;;;;5016735;28;20418;-69
2023/05/23 04:57:14;;;;;;;2.90;1.73;;;14.70;99.90;;;;;;5016385;28;20174;-69
2023/05/23 04:59:41;;;;;;;2.63;2.43;;;14.90;99.90;;;;;;5016729;28;20456;-69
2023/05/23 05:02:08;;;;;;;3.40;3.10;;;15.00;99.90;;;;;;5016400;28;20937;-69
2023/05/23 05:04:33;;;;;;;3.13;2.57;;;15.10;99.90;;;;;;5016775;28;20414;-69
2023/05/23 05:06:59;;;;;;;3.30;3.10;;;15.30;99.90;;;;;;5016260;28;20403;-68
2023/05/23 05:09:25;;;;;;;1.30;1.30;;;15.70;99.90;;;;;;5016602;28;20652;-69
2023/05/23 05:11:50;;;;;;;3.03;2.03;;;16.10;99.90;;;;;;5016159;28;20207;-69
2023/05/23 05:14:16;;;;;;;5.20;3.27;;;16.50;99.90;;;;;;5016197;28;20175;-69
2023/05/23 05:16:42;;;;;;;4.60;3.70;;;16.90;99.90;;;;;;5016120;28;20175;-69
2023/05/23 05:19:08;;;;;;;4.13;3.27;;;17.30;99.90;;;;;;5016137;28;20218;-69
2023/05/23 05:21:33;;;;;;;3.37;3.10;;;17.70;99.90;;;;;;5016097;28;20457;-69
2023/05/23 05:23:59;;;;;;;2.20;2.00;;;18.20;99.80;;;;;;5016182;28;20183;-69
2023/05/23 05:26:25;;;;;;;1.30;1.23;;;18.70;98.90;;;;;;5015869;28;20176;-69
2023/05/23 05:28:52;;;;;;;1.20;1.20;;;19.20;98.10;;;;;;5016191;28;20229;-69
2023/05/23 05:31:17;;;;;;;1.83;1.73;;;19.60;99.90;;;;;;5015752;28;20872;-69
2023/05/23 05:33:44;;;;;;;2.43;2.23;;;19.80;96.50;;;;;;5015869;28;20410;-69
2023/05/23 05:36:10;;;;;;;2.33;1.90;;;19.90;96.00;;;;;;5015654;28;20201;-69
2023/05/23 05:38:36;;;;;;;2.27;2.07;;;19.90;95.80;;;;;;5015998;28;20514;-69
2023/05/23 05:41:02;;;;;;;1.70;1.60;;;19.90;95.50;;;;;;5016035;28;20872;-69
2023/05/23 05:43:27;;;;;;;2.60;2.40;;;19.90;95.30;;;;;;5015612;28;20438;-69
2023/05/23 05:45:53;;;;;;;2.20;2.00;;;19.90;95.50;;;;;;5015687;28;20176;-69
2023/05/23 05:48:19;;;;;;;3.30;2.40;;;19.90;95.10;;;;;;5015260;28;20188;-69
2023/05/23 05:50:44;;;;;;;6.40;2.27;;;19.90;95.20;;;;;;5015780;28;20215;-69
2023/05/23 05:53:11;;;;;;;3.97;3.20;;;19.80;95.20;;;;;;5015463;28;20220;-69
2023/05/23 05:55:37;;;;;;;3.07;2.60;;;19.70;95.10;;;;;;5015595;28;20172;-69
2023/05/23 05:58:03;;;;;;;4.10;3.70;;;19.60;95.70;;;;;;5015386;28;20462;-69
2023/05/23 06:00:29;;;;;;;2.93;2.67;;;19.50;95.40;;;;;;5015375;28;20231;-69
2023/05/23 06:02:58;;;;;;;2.50;2.17;;;19.50;95.60;;;;;;5015304;28;20198;-69
2023/05/23 06:05:25;;;;;;;1.77;1.40;;;19.50;95.80;;;;;;5015103;28;20788;-69
2023/05/23 06:07:51;;;;;;;2.43;2.23;;;19.50;95.70;;;;;;5015693;28;20887;-69
2023/05/23 06:10:17;;;;;;;2.53;2.33;;;19.50;95.50;;;;;;5015216;28;20458;-69
2023/05/23 06:12:44;;;;;;;2.13;1.90;;;19.30;95.40;;;;;;5014946;28;20458;-69
2023/05/23 06:15:12;;;;;;;2.50;2.30;;;19.00;95.40;;;;;;5015341;28;20410;-69
2023/05/23 06:17:37;;;;;;;1.30;1.20;;;18.70;96.10;;;;;;5014933;28;20529;-69
2023/05/23 06:20:03;;;;;;;2.20;2.00;;;18.50;96.50;;;;;;5015101;28;20914;-69
2023/05/23 06:22:29;;;;;;;1.63;1.53;;;18.30;96.80;;;;;;5015011;28;20198;-69
2023/05/23 06:24:55;;;;;;;1.90;1.80;;;18.10;97.50;;;;;;5014939;28;20413;-69
2023/05/23 06:27:20;;;;;;;4.50;2.00;;;18.20;98.00;;;;;;5014641;28;20636;-69
2023/05/23 06:29:46;;;;;;;1.93;1.23;;;18.50;98.00;;;;;;5014730;28;20203;-69
2023/05/23 06:32:12;;;;;;;2.33;2.13;;;18.60;97.90;;;;;;4997153;28;20199;-69
2023/05/23 06:34:37;;;;;;;1.50;1.40;;;18.70;97.80;;;;;;5014762;28;20180;-69
2023/05/23 06:37:03;;;;;;;1.53;1.43;;;18.80;97.50;;;;;;5014638;28;20206;-69
2023/05/23 06:39:28;;;;;;;2.30;2.10;;;18.80;97.30;;;;;;5014899;28;20172;-69
2023/05/23 06:41:55;;;;;;;4.43;4.10;;;18.90;97.30;;;;;;5014621;28;20191;-69
2023/05/23 06:44:20;;;;;;;2.00;1.53;;;19.10;97.40;;;;;;5014553;28;20263;-69
2023/05/23 06:46:46;;;;;;;2.60;1.93;;;19.20;97.40;;;;;;5014325;28;20498;-69
2023/05/23 06:49:12;;;;;;;3.23;2.00;;;19.40;97.30;;;;;;5014596;28;20226;-68
2023/05/23 06:51:38;;;;;;;3.43;2.93;;;19.50;97.30;;;;;;5014379;28;20209;-69
2023/05/23 06:54:04;;;;;;;2.50;2.03;;;19.50;97.20;;;;;;5014476;28;20749;-69
2023/05/23 06:56:29;;;;;;;1.07;1.07;;;19.60;97.20;;;;;;5014070;28;20187;-69
2023/05/23 06:58:55;;;;;;;2.73;1.77;;;19.50;97.00;;;;;;5014245;28;20431;-69
2023/05/23 07:01:21;;;;;;;1.90;1.80;;;19.60;99.90;;;;;;5013670;28;20261;-69
2023/05/23 07:03:46;;;;;;;1.67;1.57;;;19.40;97.20;;;;;;5014426;28;20185;-69
2023/05/23 07:06:12;;;;;;;2.03;1.43;;;19.30;97.20;;;;;;5013970;28;20661;-69
2023/05/23 07:08:37;;;;;;;3.23;2.93;;;19.20;97.50;;;;;;5014045;28;20179;-69
2023/05/23 07:11:05;;;;;;;2.40;2.20;;;19.20;97.90;;;;;;5014116;28;20195;-69
2023/05/23 07:13:31;;;;;;;1.77;1.67;;;19.20;98.00;;;;;;5014223;28;20332;-69
2023/05/23 07:15:56;;;;;;;2.23;2.07;;;19.20;98.10;;;;;;5013844;28;20819;-69
2023/05/23 07:18:23;;;;;;;1.97;1.87;;;19.30;98.20;;;;;;5014070;28;20185;-69
2023/05/23 07:20:48;;;;;;;2.50;2.07;;;19.40;98.20;;;;;;5014088;28;20531;-69
2023/05/23 07:23:14;;;;;;;3.00;2.60;;;19.50;97.80;;;;;;5013909;28;20437;-69
2023/05/23 07:25:41;;;;;;;2.17;2.00;;;19.60;97.60;;;;;;5013881;28;20644;-70
2023/05/23 07:28:07;;;;;;;2.00;1.87;;;19.70;97.40;;;;;;5013880;28;20910;-69
2023/05/23 07:30:33;;;;;;;3.00;2.60;;;19.80;97.50;;;;;;5013972;28;20450;-69
2023/05/23 07:32:59;;;;;;;3.33;3.03;;;19.90;97.70;;;;;;5013850;28;20434;-69
2023/05/23 07:35:25;;;;;;;3.03;2.60;;;20.00;97.50;;;;;;5013912;28;20184;-69
2023/05/23 07:37:54;;;;;;;1.90;1.80;;;20.00;97.60;;;;;;5013952;28;20234;-69
2023/05/23 07:40:21;;;;;;;4.40;2.00;;;19.90;97.30;;;;;;5013911;28;20412;-69
2023/05/23 07:42:47;;;;;;;3.13;1.80;;;20.00;97.70;;;;;;5013610;28;20465;-69
2023/05/23 07:45:13;;;;;;;2.80;2.57;;;20.10;97.70;;;;;;5013733;28;20825;-69
2023/05/23 07:47:40;;;;;;;4.40;2.93;;;20.30;97.70;;;;;;5013592;28;20417;-69
2023/05/23 07:50:06;;;;;;;1.93;1.80;;;20.40;97.60;;;;;;5013555;28;20484;-69
2023/05/23 07:52:32;;;;;;;2.00;1.90;;;20.60;97.30;;;;;;4995900;28;20953;-69
2023/05/23 07:54:58;;;;;;;1.70;1.60;;;20.80;96.50;;;;;;5013505;28;20416;-69
2023/05/23 07:57:24;;;;;;;1.60;1.43;;;21.10;96.30;;;;;;5013396;28;20413;-69
2023/05/23 07:59:51;;;;;;;3.13;2.30;;;21.40;95.80;;;;;;5013736;28;20516;-69
2023/05/23 08:02:16;;;;;;;1.80;1.67;;;22.20;95.30;;;;;;5013489;28;20488;-69
2023/05/23 08:04:44;;;;;;;2.53;1.90;;;23.20;93.20;;;;;;5013461;28;20418;-69
2023/05/23 08:07:10;;;;;;;1.53;1.43;;;23.80;91.00;;;;;;5013231;28;20203;-69
2023/05/23 08:09:36;;;;;;;1.97;1.87;;;24.10;91.20;;;;;;5013401;28;20421;-69
2023/05/23 08:12:02;;;;;;;2.47;2.30;;;24.20;90.20;;;;;;5015685;28;20449;-70
2023/05/23 08:14:28;;;;;;;2.87;2.67;;;24.20;90.00;;;;;;5017614;28;20905;-69
2023/05/23 08:16:53;;;;;;;2.00;1.90;;;25.30;87.60;;;;;;5017365;28;20167;-69
2023/05/23 08:19:19;;;;;;;1.80;1.10;;;25.60;82.60;;;;;;5017551;28;20175;-70
2023/05/23 08:21:46;;;;;;;3.27;1.93;;;24.70;83.20;;;;;;5017368;28;20633;-69
2023/05/23 08:24:12;;;;;;;2.60;2.40;;;23.80;85.70;;;;;;5017240;28;20656;-69
2023/05/23 08:26:38;;;;;;;3.80;2.47;;;23.10;87.40;;;;;;5016975;28;20417;-69
2023/05/23 08:29:04;;;;;;;1.83;1.70;;;22.60;89.70;;;;;;5017368;28;20178;-69
2023/05/23 08:31:30;;;;;;;3.53;2.70;;;22.20;90.20;;;;;;5016985;28;20807;-69
2023/05/23 08:33:56;;;;;;;1.97;1.87;;;22.10;90.10;;;;;;5017010;28;20176;-69
2023/05/23 08:36:22;;;;;;;2.87;1.60;;;21.90;90.30;;;;;;5016767;28;20982;-69
2023/05/23 08:38:49;;;;;;;1.57;1.47;;;21.70;90.20;;;;;;5017113;28;20179;-69
2023/05/23 08:41:21;;;;;;;1.63;1.53;;;21.40;90.40;;;;;;5016815;28;20413;-69
2023/05/23 08:43:47;;;;;;;2.13;1.67;;;21.20;91.10;;;;;;5017155;28;20468;-69
2023/05/23 08:46:14;;;;;;;1.93;1.80;;;21.10;92.00;;;;;;5016668;28;20416;-69
2023/05/23 08:48:41;;;;;;;2.13;1.70;;;21.00;92.20;;;;;;5016805;28;20428;-69
2023/05/23 08:51:12;;;;;;;2.00;1.90;;;20.60;93.00;;;;;;5016549;28;20972;-69
2023/05/23 08:53:43;;;;;;;1.73;1.63;;;20.30;94.00;;;;;;5016742;28;20415;-69
2023/05/23 08:56:10;;;;;;;3.50;3.20;;;20.10;94.60;;;;;;4998926;28;20421;-69
2023/05/23 08:58:37;;;;;;;1.90;1.80;;;19.90;95.10;;;;;;5016676;28;20437;-69
2023/05/23 09:01:03;;;;;;;2.93;2.37;;;19.70;95.30;;;;;;5016719;28;20406;-70
2023/05/23 09:03:29;;;;;;;2.80;2.60;;;19.70;96.10;;;;;;5016391;28;20911;-69
2023/05/23 09:05:56;;;;;;;3.73;2.87;;;19.80;95.90;;;;;;5016211;28;20414;-69
2023/05/23 09:08:23;;;;;;;2.83;2.00;;;19.80;95.90;;;;;;5016426;28;20265;-69
2023/05/23 09:10:50;;;;;;;3.83;3.53;;;20.00;96.50;;;;;;5016399;28;20510;-69
2023/05/23 09:13:16;;;;;;;1.90;1.80;;;21.20;95.60;;;;;;5016148;28;20963;-69
2023/05/23 09:16:04;;;;;;;2.30;2.10;;;22.40;93.80;;;;;;5016318;28;20404;-69
2023/05/23 09:18:42;;;;;;;1.90;1.50;;;23.40;91.90;;;;;;5016516;28;20411;-69
2023/05/23 09:21:09;;;;;;;2.50;2.23;;;23.60;91.40;;;;;;5016395;28;20920;-70
2023/05/23 09:23:38;;;;;;;2.93;2.20;;;23.70;91.70;;;;;;5015616;28;20422;-70
2023/05/23 09:26:05;;;;;;;3.00;2.20;;;24.90;90.70;;;;;;4998373;28;20912;-70
2023/05/23 09:28:35;;;;;;;13.63;2.47;;;25.70;86.90;;;;;;5016002;28;20384;-70
2023/05/23 09:31:05;;;;;;;1.67;1.57;;;26.20;83.60;;;;;;4998338;28;20835;-70
2023/05/23 09:33:34;;;;;;;2.13;2.03;;;26.10;83.70;;;;;;5015981;28;20411;-70
2023/05/23 09:36:00;;;;;;;3.67;2.10;;;26.10;82.80;;;;;;5015948;28;20488;-69
2023/05/23 09:38:27;;;;;;;3.40;2.50;;;26.30;81.90;;;;;;5015839;28;20403;-70
2023/05/23 09:40:55;;;;;;;3.23;2.50;;;26.80;79.60;;;;;;5016106;28;20178;-70
2023/05/23 09:43:21;;;;;;;1.77;1.67;;;26.90;78.60;;;;;;5015707;28;20965;-70
2023/05/23 09:45:46;;;;;;;2.00;1.47;;;26.00;79.50;;;;;;5015581;28;20776;-69
2023/05/23 09:48:12;;;;;;;1.93;1.77;;;24.60;83.10;;;;;;5015745;28;20407;-70
2023/05/23 09:50:38;;;;;;;3.30;2.30;;;23.70;85.80;;;;;;5015608;28;20663;-70
2023/05/23 09:53:04;;;;;;;3.47;2.97;;;23.00;90.30;;;;;;5015446;28;20773;-69
2023/05/23 09:55:29;;;;;;;9.13;2.53;;;22.10;92.90;;;;;;5015557;28;20179;-69
2023/05/23 09:57:57;;;;;;;3.47;3.17;;;21.50;94.90;;;;;;5015480;28;20329;-69
2023/05/23 10:00:24;;;;;;;3.07;2.87;;;20.80;96.60;;;;;;5015478;28;20528;-69
2023/05/23 10:02:54;;;;;;;2.97;2.67;;;20.00;97.60;;;;;;5015295;28;20437;-69
2023/05/23 10:05:44;;;;;;;4.20;3.70;;;19.30;97.90;;;;;;5015358;28;20420;-69
2023/05/23 10:08:14;;;;;;;8.57;3.47;;;18.90;98.80;;;;;;5015466;28;20411;-69
2023/05/23 10:10:55;;;;;;;1.80;1.70;;;18.70;99.90;;;;;;5015364;28;20508;-69
2023/05/23 10:13:25;;;;;;;2.63;2.27;;;18.60;99.90;;;;;;5015122;28;20433;-69
2023/05/23 10:15:58;;;;;;;2.77;2.30;;;18.50;99.90;;;;;;5015163;28;20433;-69
2023/05/23 10:18:28;;;;;;;2.47;2.27;;;18.70;99.90;;;;;;5015261;28;20398;-69
2023/05/23 10:21:02;;;;;;;3.10;2.87;;;19.00;99.90;;;;;;5015121;28;20453;-69
2023/05/23 10:23:30;;;;;;;2.57;2.40;;;19.50;99.90;;;;;;5014892;28;20486;-69
2023/05/23 10:25:55;;;;;;;2.60;2.40;;;20.60;99.90;;;;;;5014809;28;20475;-69
2023/05/23 10:28:21;;;;;;;3.10;2.90;;;22.10;99.90;;;;;;5015117;28;20402;-70
2023/05/23 10:30:47;;;;;;;2.43;2.20;;;23.70;99.90;;;;;;5014906;28;20257;-70
2023/05/23 10:33:15;;;;;;;3.00;2.20;;;24.90;96.40;;;;;;5014925;28;20192;-70
2023/05/23 10:35:57;;;;;;;3.30;2.90;;;25.10;92.50;;;;;;5014577;28;20406;-70
2023/05/23 10:38:32;;;;;;;2.00;1.90;;;24.80;94.10;;;;;;5014810;28;20378;-69
2023/05/23 10:41:21;;;;;;;3.77;2.40;;;24.30;94.00;;;;;;5014783;28;20815;-69
2023/05/23 10:44:24;;;;;;;2.33;2.03;;;23.50;95.10;;;;;;5014813;28;20365;-69
2023/05/23 10:46:57;;;;;;;3.00;2.70;;;22.80;94.80;;;;;;4954084;28;20894;-70
2023/05/23 10:49:43;;;;;;;4.20;2.50;;;22.30;96.10;;;;;;5006075;28;20764;-69
2023/05/23 10:52:13;;;;;;;3.10;1.93;;;21.70;97.20;;;;;;5014364;28;20431;-69
2023/05/23 10:54:50;;;;;;;3.50;2.83;;;21.20;98.50;;;;;;5014729;28;20800;-69
2023/05/23 10:57:20;;;;;;;2.80;2.57;;;21.00;99.10;;;;;;5014309;28;20398;-70
2023/05/23 10:59:49;;;;;;;4.07;3.47;;;20.80;99.90;;;;;;4996853;28;20416;-69
2023/05/23 11:02:24;;;;;;;4.50;3.50;;;20.50;99.80;;;;;;5014372;28;20436;-69
2023/05/23 11:05:22;;;;;;;6.00;3.53;;;20.30;99.90;;;;;;5014439;28;20416;-69
2023/05/23 11:08:08;;;;;;;4.47;3.00;;;20.20;99.90;;;;;;5014466;28;20409;-69
2023/05/23 11:10:52;;;;;;;4.07;3.77;;;20.00;99.90;;;;;;5014230;28;20452;-69
2023/05/23 11:13:20;;;;;;;2.37;2.17;;;20.00;99.90;;;;;;5014111;28;20497;-69
2023/05/23 11:15:46;;;;;;;3.83;3.53;;;19.80;99.90;;;;;;5013941;28;20410;-69
2023/05/23 11:18:33;;;;;;;3.43;3.13;;;19.60;99.90;;;;;;5014701;28;20394;-69
2023/05/23 11:21:00;;;;;;;2.97;2.67;;;19.50;99.90;;;;;;5014069;28;20919;-69
2023/05/23 11:23:40;;;;;;;3.30;2.80;;;19.40;99.90;;;;;;5014076;28;20458;-69
2023/05/23 11:26:30;;;;;;;5.70;3.17;;;19.40;99.90;;;;;;5014081;28;20870;-69
2023/05/23 11:28:57;;;;;;;4.00;2.83;;;19.50;99.90;;;;;;5014128;28;20423;-69
2023/05/23 11:31:23;;;;;;;2.37;2.27;;;19.40;99.90;;;;;;5013811;28;20458;-69
2023/05/23 11:33:52;;;;;;;2.40;2.30;;;19.80;99.90;;;;;;5013815;28;20411;-69
2023/05/23 11:36:20;;;;;;;2.13;2.03;;;20.30;99.90;;;;;;5013569;28;20465;-70
2023/05/23 11:38:46;;;;;;;2.43;1.93;;;20.70;99.60;;;;;;5013948;28;20853;-69
2023/05/23 11:41:11;;;;;;;3.90;2.47;;;21.20;97.70;;;;;;5013714;28;20765;-69
2023/05/23 11:43:47;;;;;;;2.50;1.70;;;21.50;96.60;;;;;;5013776;28;20414;-69
2023/05/23 11:46:13;;;;;;;2.40;2.30;;;21.90;97.50;;;;;;5013200;28;20537;-69
2023/05/23 11:48:44;;;;;;;4.13;3.73;;;22.30;96.80;;;;;;5013796;28;20406;-69
2023/05/23 11:51:10;;;;;;;2.90;2.60;;;22.70;95.80;;;;;;5013645;28;20710;-69
2023/05/23 11:53:35;;;;;;;3.07;2.53;;;22.80;95.00;;;;;;5013652;28;20418;-69
2023/05/23 11:56:02;;;;;;;4.97;3.30;;;22.80;95.90;;;;;;5013380;28;20585;-69
2023/05/23 11:58:34;;;;;;;3.77;2.63;;;22.90;94.70;;;;;;5013696;28;20250;-69
2023/05/23 12:01:05;;;;;;;5.50;3.27;;;23.00;94.30;;;;;;5013663;28;20414;-69
2023/05/23 12:03:31;;;;;;;3.67;3.27;;;23.10;93.90;;;;;;5013844;28;20408;-69
2023/05/23 12:05:58;;;;;;;6.53;3.37;;;23.20;95.00;;;;;;5013475;28;20388;-70
2023/05/23 12:08:26;;;;;;;3.43;3.00;;;22.90;93.50;;;;;;5013681;28;20392;-69
2023/05/23 12:10:55;;;;;;;4.50;4.13;;;22.60;95.60;;;;;;5013402;28;20450;-71
2023/05/23 12:13:24;;;;;;;2.87;2.63;;;22.40;96.60;;;;;;5013237;28;20426;-70
2023/05/23 12:15:53;;;;;;;2.60;2.40;;;22.40;98.20;;;;;;5013151;28;20485;-70
2023/05/23 12:18:19;;;;;;;4.40;3.10;;;22.40;98.30;;;;;;5013425;28;20373;-69
2023/05/23 12:20:48;;;;;;;3.50;3.17;;;22.30;99.00;;;;;;5013357;28;20416;-69
2023/05/23 12:23:25;;;;;;;3.07;2.80;;;22.40;99.80;;;;;;5013279;28;20454;-70
2023/05/23 12:25:52;;;;;;;2.30;2.00;;;22.50;98.50;;;;;;5013213;28;20500;-70
2023/05/23 12:28:19;;;;;;;2.60;2.40;;;22.50;98.30;;;;;;5013228;28;20402;-69
2023/05/23 12:30:45;;;;;;;4.50;4.20;;;22.60;98.50;;;;;;5013165;28;20446;-69
2023/05/23 12:33:10;;;;;;;5.83;3.00;;;22.60;97.90;;;;;;5013215;28;20461;-69
2023/05/23 12:35:37;;;;;;;5.03;4.60;;;22.40;98.60;;;;;;5013066;28;20218;-70
2023/05/23 12:38:08;;;;;;;3.80;2.73;;;22.20;97.50;;;;;;5013264;28;20414;-69
2023/05/23 12:40:34;;;;;;;2.70;2.57;;;22.30;98.10;;;;;;5013375;28;20458;-69
2023/05/23 12:43:00;;;;;;;4.90;3.63;;;22.20;95.40;;;;;;5013048;28;20453;-68
2023/05/23 12:45:30;;;;;;;4.10;3.77;;;21.70;94.70;;;;;;5013011;28;20415;-70
2023/05/23 12:47:56;;;;;;;2.77;2.57;;;21.40;98.60;;;;;;5013284;28;20194;-69
2023/05/23 12:50:21;;;;;;;2.03;1.93;;;21.10;99.00;;;;;;5013034;28;20543;-69